Time;durP1;ratioP1;P1;durP2;ratioP2;P2;SDS_P1;SDS_P2;PMS_P1;PMS_P2;Temp;Humidity;BMP_temperature;BMP_pressure;BME280_temperature;BME280_humidity;BME280_pressure;Samples;Min_cycle;Max_cycle;Signal;HPM_P1;HPM_P2
2023/04/27 00:00:44;;;;;;;21.33;5.30;;;8.90;99.90;;;;;;5021087;28;20194;-69
2023/04/27 00:03:10;;;;;;;13.93;5.00;;;8.90;99.90;;;;;;5020157;28;20257;-69
2023/04/27 00:05:37;;;;;;;14.27;4.83;;;8.90;99.90;;;;;;5023067;28;20170;-74
2023/04/27 00:08:04;;;;;;;15.03;5.43;;;8.90;99.90;;;;;;5025561;28;20269;-70
2023/04/27 00:10:30;;;;;;;19.00;5.27;;;8.80;99.90;;;;;;5028340;28;20226;-69
2023/04/27 00:12:55;;;;;;;13.80;5.27;;;8.80;99.90;;;;;;5019783;28;20223;-69
2023/04/27 00:15:21;;;;;;;16.50;5.67;;;8.80;99.90;;;;;;5028016;28;20190;-69
2023/04/27 00:17:47;;;;;;;13.43;5.07;;;8.80;99.90;;;;;;5021706;28;20270;-69
2023/04/27 00:20:12;;;;;;;15.93;5.37;;;8.70;99.90;;;;;;5023993;28;20189;-69
2023/04/27 00:22:38;;;;;;;15.97;5.77;;;8.70;99.90;;;;;;5022024;28;20197;-69
2023/04/27 00:25:05;;;;;;;13.87;5.57;;;8.60;99.90;;;;;;5025622;28;20711;-69
2023/04/27 00:27:30;;;;;;;9.70;5.70;;;8.50;99.90;;;;;;5028229;28;20182;-68
2023/04/27 00:29:56;;;;;;;24.83;5.53;;;8.50;99.90;;;;;;5025694;28;20677;-69
2023/04/27 00:32:22;;;;;;;12.37;5.33;;;8.40;99.90;;;;;;5021472;28;20218;-69
2023/04/27 00:34:47;;;;;;;12.30;5.90;;;8.40;99.90;;;;;;5024330;28;20178;-69
2023/04/27 00:37:13;;;;;;;20.70;6.50;;;8.30;99.90;;;;;;5023104;28;20629;-69
2023/04/27 00:39:39;;;;;;;14.83;5.43;;;;;;;;;;5027951;28;20205;-70
2023/04/27 00:42:10;;;;;;;17.23;5.53;;;8.20;99.90;;;;;;5027037;28;20232;-69
2023/04/27 00:44:35;;;;;;;13.77;5.03;;;8.50;99.90;;;;;;5025664;28;20198;-69
2023/04/27 00:47:01;;;;;;;15.50;5.50;;;8.10;99.90;;;;;;5023864;28;20193;-70
2023/04/27 00:49:27;;;;;;;18.50;5.43;;;8.00;99.90;;;;;;5025280;28;20183;-71
2023/04/27 00:51:54;;;;;;;16.10;5.43;;;8.00;99.90;;;;;;5025101;28;20218;-70
2023/04/27 00:54:20;;;;;;;13.50;5.20;;;7.90;99.90;;;;;;5020942;28;20181;-69
2023/04/27 00:56:50;;;;;;;15.37;5.20;;;7.90;99.90;;;;;;5027964;28;20170;-69
2023/04/27 00:59:19;;;;;;;11.93;5.60;;;7.80;99.90;;;;;;5003649;28;20641;-69
2023/04/27 01:01:48;;;;;;;14.67;5.93;;;7.80;99.90;;;;;;5020748;28;20181;-70
2023/04/27 01:04:15;;;;;;;15.33;5.53;;;7.80;99.90;;;;;;5021202;28;20240;-71
2023/04/27 01:06:41;;;;;;;14.27;5.70;;;7.80;99.90;;;;;;5024045;28;20198;-69
2023/04/27 01:09:08;;;;;;;14.57;5.70;;;7.70;99.90;;;;;;5021997;28;20708;-70
2023/04/27 01:11:34;;;;;;;18.00;6.07;;;7.70;99.90;;;;;;5024311;28;20201;-70
2023/04/27 01:14:04;;;;;;;15.63;5.80;;;7.70;99.90;;;;;;5022215;28;20178;-70
2023/04/27 01:16:30;;;;;;;10.90;5.23;;;7.70;99.90;;;;;;5025002;28;20288;-70
2023/04/27 01:18:56;;;;;;;16.23;6.03;;;7.60;99.90;;;;;;5023027;28;20185;-70
2023/04/27 01:21:22;;;;;;;12.10;5.23;;;7.70;99.90;;;;;;5025521;28;20186;-70
2023/04/27 01:23:47;;;;;;;14.57;5.50;;;7.70;99.90;;;;;;5023585;28;20179;-70
2023/04/27 01:26:15;;;;;;;9.00;5.57;;;7.70;99.90;;;;;;5020563;28;20233;-71
2023/04/27 01:28:41;;;;;;;14.37;5.50;;;7.70;99.90;;;;;;5024525;28;20319;-71
2023/04/27 01:31:07;;;;;;;16.07;6.10;;;7.70;99.90;;;;;;5023948;28;20284;-71
2023/04/27 01:33:32;;;;;;;13.83;6.00;;;7.60;99.90;;;;;;5031258;28;20697;-69
2023/04/27 01:35:58;;;;;;;11.40;5.50;;;7.70;99.90;;;;;;5027455;28;20190;-69
2023/04/27 01:38:24;;;;;;;16.27;5.80;;;7.60;99.90;;;;;;5028961;28;20177;-70
2023/04/27 01:40:49;;;;;;;19.37;6.27;;;7.60;99.90;;;;;;5026078;28;20372;-70
2023/04/27 01:43:15;;;;;;;17.77;6.50;;;7.50;99.90;;;;;;5027804;28;20182;-70
2023/04/27 01:45:40;;;;;;;12.53;5.87;;;7.50;99.90;;;;;;5026773;28;20186;-70
2023/04/27 01:48:06;;;;;;;19.57;6.53;;;7.50;99.90;;;;;;5025486;28;20185;-70
2023/04/27 01:50:32;;;;;;;14.30;6.53;;;7.50;99.90;;;;;;5028680;28;20209;-70
2023/04/27 01:52:57;;;;;;;18.53;6.53;;;7.50;99.90;;;;;;5029562;28;20200;-70
2023/04/27 01:55:23;;;;;;;14.60;5.97;;;7.50;99.90;;;;;;5028402;28;20288;-70
2023/04/27 01:57:48;;;;;;;16.30;6.40;;;7.50;99.90;;;;;;5026818;28;20659;-70
2023/04/27 02:00:14;;;;;;;14.30;6.60;;;7.50;99.90;;;;;;5028481;28;20193;-70
2023/04/27 02:02:40;;;;;;;16.40;5.57;;;7.50;99.90;;;;;;5023842;28;20191;-71
2023/04/27 02:05:06;;;;;;;19.97;6.63;;;7.40;99.90;;;;;;5029519;28;20182;-69
2023/04/27 02:07:31;;;;;;;13.30;5.83;;;7.30;99.90;;;;;;5024990;28;20189;-69
2023/04/27 02:09:57;;;;;;;18.47;6.13;;;7.30;99.90;;;;;;5026983;28;20699;-70
2023/04/27 02:12:23;;;;;;;17.47;6.90;;;7.30;99.90;;;;;;5029442;28;20700;-69
2023/04/27 02:14:48;;;;;;;17.20;6.30;;;7.30;99.90;;;;;;5026144;28;20270;-70
2023/04/27 02:17:14;;;;;;;17.83;5.83;;;;;;;;;;5027282;28;20178;-70
2023/04/27 02:19:40;;;;;;;19.33;6.70;;;7.20;99.90;;;;;;5023557;28;20178;-70
2023/04/27 02:22:06;;;;;;;24.40;6.47;;;7.20;99.90;;;;;;5030563;28;20670;-69
2023/04/27 02:24:31;;;;;;;24.03;7.13;;;7.20;99.90;;;;;;5026391;28;20189;-70
2023/04/27 02:26:57;;;;;;;18.90;6.90;;;7.00;99.90;;;;;;5012001;28;20185;-70
2023/04/27 02:29:22;;;;;;;13.30;6.27;;;7.10;99.90;;;;;;5023341;28;20571;-70
2023/04/27 02:31:48;;;;;;;16.43;6.20;;;7.10;99.90;;;;;;5029034;28;20291;-70
2023/04/27 02:34:14;;;;;;;20.30;6.80;;;7.20;99.90;;;;;;5024220;28;20189;-71
2023/04/27 02:36:40;;;;;;;15.17;6.13;;;;;;;;;;5026152;28;20620;-70
2023/04/27 02:39:05;;;;;;;13.00;5.90;;;6.90;99.90;;;;;;5026149;28;20287;-70
2023/04/27 02:41:31;;;;;;;16.53;5.97;;;7.20;99.90;;;;;;5023920;28;20697;-70
2023/04/27 02:43:57;;;;;;;16.57;6.97;;;7.10;99.90;;;;;;5026858;28;20177;-70
2023/04/27 02:46:23;;;;;;;18.93;6.53;;;;;;;;;;5024106;28;20183;-70
2023/04/27 02:48:48;;;;;;;18.73;6.73;;;7.10;99.90;;;;;;5027768;28;20534;-70
2023/04/27 02:51:14;;;;;;;20.93;6.90;;;7.20;99.90;;;;;;5022390;28;20210;-70
2023/04/27 02:53:39;;;;;;;17.80;7.33;;;7.20;99.90;;;;;;5026648;28;20178;-71
2023/04/27 02:56:05;;;;;;;16.67;7.33;;;7.10;99.90;;;;;;5026196;28;20194;-70
2023/04/27 02:58:31;;;;;;;15.83;7.30;;;7.20;99.90;;;;;;5027748;28;20232;-71
2023/04/27 03:00:56;;;;;;;16.67;7.40;;;7.20;99.90;;;;;;5024958;28;20668;-70
2023/04/27 03:03:22;;;;;;;14.47;6.57;;;7.20;99.90;;;;;;5024658;28;20227;-71
2023/04/27 03:05:48;;;;;;;18.87;6.50;;;7.20;99.90;;;;;;5026136;28;20664;-71
2023/04/27 03:08:14;;;;;;;13.50;7.53;;;7.20;99.90;;;;;;5022779;28;20185;-70
2023/04/27 03:10:40;;;;;;;15.43;7.20;;;;;;;;;;5029104;28;20289;-70
2023/04/27 03:13:06;;;;;;;16.20;7.53;;;7.20;99.90;;;;;;5022976;28;20309;-71
2023/04/27 03:15:31;;;;;;;15.93;7.37;;;7.20;99.90;;;;;;5025400;28;20182;-70
2023/04/27 03:17:57;;;;;;;13.43;7.33;;;7.20;99.90;;;;;;5025311;28;20182;-72
2023/04/27 03:20:23;;;;;;;12.93;7.03;;;7.30;99.90;;;;;;5026001;28;20232;-73
2023/04/27 03:22:48;;;;;;;17.37;7.37;;;7.30;99.90;;;;;;5021541;28;20608;-72
2023/04/27 03:25:14;;;;;;;14.43;7.70;;;7.40;99.90;;;;;;5024726;28;20190;-71
2023/04/27 03:27:39;;;;;;;17.77;7.30;;;7.40;99.90;;;;;;5025384;28;20284;-70
2023/04/27 03:30:06;;;;;;;17.87;7.70;;;7.40;99.90;;;;;;5022806;28;20286;-70
2023/04/27 03:32:31;;;;;;;15.07;6.93;;;7.50;99.90;;;;;;5023552;28;20221;-71
2023/04/27 03:34:57;;;;;;;20.70;7.77;;;7.60;99.90;;;;;;5004434;28;20189;-70
2023/04/27 03:37:23;;;;;;;17.60;7.90;;;7.60;99.90;;;;;;5024592;28;20269;-69
2023/04/27 03:39:48;;;;;;;15.00;7.10;;;7.70;99.90;;;;;;5021041;28;20190;-70
2023/04/27 03:42:14;;;;;;;14.97;7.00;;;7.80;99.90;;;;;;5024882;28;20641;-70
2023/04/27 03:44:40;;;;;;;14.43;6.43;;;;;;;;;;5019986;28;20182;-71
2023/04/27 03:47:08;;;;;;;16.67;7.10;;;8.00;99.90;;;;;;5024356;28;20192;-71
2023/04/27 03:49:34;;;;;;;20.47;7.07;;;8.20;99.90;;;;;;5021069;28;20229;-70
2023/04/27 03:52:00;;;;;;;20.93;7.10;;;8.20;99.90;;;;;;5023863;28;20320;-71
2023/04/27 03:54:26;;;;;;;15.70;6.30;;;8.20;99.90;;;;;;5023740;28;20693;-70
2023/04/27 03:56:51;;;;;;;17.57;7.10;;;8.30;99.90;;;;;;5027914;28;20185;-71
2023/04/27 03:59:17;;;;;;;14.20;6.63;;;8.30;99.90;;;;;;5024641;28;20210;-70
2023/04/27 04:01:43;;;;;;;17.00;6.50;;;8.50;99.90;;;;;;5020114;28;20521;-71
2023/04/27 04:04:08;;;;;;;17.10;6.77;;;8.40;99.90;;;;;;5024063;28;20182;-70
2023/04/27 04:06:35;;;;;;;16.70;6.77;;;8.40;99.90;;;;;;5022007;28;20213;-69
2023/04/27 04:09:02;;;;;;;10.90;6.03;;;8.50;99.90;;;;;;5025836;28;20229;-69
2023/04/27 04:11:28;;;;;;;14.30;6.30;;;8.50;99.90;;;;;;5021320;28;20223;-71
2023/04/27 04:13:54;;;;;;;17.53;6.67;;;8.50;99.90;;;;;;5027978;28;20178;-71
2023/04/27 04:16:20;;;;;;;15.53;6.67;;;8.40;99.90;;;;;;5027898;28;20188;-71
2023/04/27 04:18:45;;;;;;;19.33;7.10;;;8.50;99.90;;;;;;5020648;28;20174;-70
2023/04/27 04:21:11;;;;;;;18.47;7.20;;;8.50;99.90;;;;;;5023586;28;20269;-71
2023/04/27 04:23:39;;;;;;;19.50;7.07;;;8.60;99.90;;;;;;5025586;28;20178;-71
2023/04/27 04:26:05;;;;;;;14.83;7.57;;;8.50;99.90;;;;;;5023935;28;20194;-72
2023/04/27 04:28:31;;;;;;;15.47;7.17;;;8.30;99.90;;;;;;5025475;28;20177;-71
2023/04/27 04:30:57;;;;;;;26.03;7.40;;;8.60;99.90;;;;;;5022077;28;20290;-71
2023/04/27 04:33:25;;;;;;;17.10;8.30;;;8.60;99.90;;;;;;5025261;28;20321;-72
2023/04/27 04:35:50;;;;;;;19.37;8.13;;;8.50;99.90;;;;;;5024137;28;20204;-69
2023/04/27 04:38:16;;;;;;;19.63;7.73;;;8.60;99.90;;;;;;5022705;28;20189;-71
2023/04/27 04:40:42;;;;;;;19.40;8.50;;;8.60;99.90;;;;;;5024161;28;20178;-74
2023/04/27 04:43:07;;;;;;;16.03;7.63;;;8.60;99.90;;;;;;5021040;28;20186;-72
2023/04/27 04:45:33;;;;;;;18.90;8.27;;;8.50;99.90;;;;;;5029047;28;20218;-72
2023/04/27 04:48:00;;;;;;;13.03;7.00;;;8.80;99.90;;;;;;5012349;28;20732;-71
2023/04/27 04:50:25;;;;;;;17.47;7.47;;;8.90;99.90;;;;;;5024377;28;20273;-71
2023/04/27 04:52:51;;;;;;;16.43;7.47;;;8.80;99.90;;;;;;5022315;28;20273;-70
2023/04/27 04:55:17;;;;;;;21.37;7.77;;;8.80;99.90;;;;;;5023003;28;20559;-71
2023/04/27 04:57:42;;;;;;;23.27;8.07;;;8.80;99.90;;;;;;5025795;28;20624;-71
2023/04/27 05:00:12;;;;;;;21.77;8.30;;;8.80;99.90;;;;;;5021203;28;20187;-70
2023/04/27 05:02:41;;;;;;;21.50;8.90;;;8.80;99.90;;;;;;5024359;28;20177;-71
2023/04/27 05:05:07;;;;;;;24.13;8.67;;;8.90;99.90;;;;;;5028153;28;20178;-71
2023/04/27 05:07:33;;;;;;;15.73;8.37;;;9.00;99.90;;;;;;5031317;28;20704;-70
2023/04/27 05:09:59;;;;;;;20.33;9.10;;;9.10;99.90;;;;;;5027797;28;20222;-70
2023/04/27 05:12:24;;;;;;;18.50;8.47;;;9.00;99.90;;;;;;5026540;28;20275;-71
2023/04/27 05:14:51;;;;;;;26.00;9.20;;;9.00;99.90;;;;;;5028301;28;20170;-69
2023/04/27 05:17:16;;;;;;;27.13;9.67;;;9.00;99.90;;;;;;5030621;28;20258;-68
2023/04/27 05:19:42;;;;;;;22.63;9.30;;;9.00;99.90;;;;;;5026100;28;20264;-70
2023/04/27 05:22:07;;;;;;;22.30;9.60;;;8.90;99.90;;;;;;5027287;28;20538;-70
2023/04/27 05:24:33;;;;;;;19.80;9.53;;;9.00;99.90;;;;;;5027654;28;20193;-69
2023/04/27 05:26:59;;;;;;;24.23;9.03;;;9.00;99.90;;;;;;5026410;28;20186;-71
2023/04/27 05:29:24;;;;;;;26.60;10.17;;;8.70;99.90;;;;;;5030621;28;20552;-71
2023/04/27 05:31:50;;;;;;;23.43;10.30;;;9.00;99.90;;;;;;5025373;28;20218;-71
2023/04/27 05:34:16;;;;;;;29.57;10.53;;;9.00;99.90;;;;;;5028020;28;20241;-71
2023/04/27 05:36:41;;;;;;;22.27;9.83;;;9.10;99.90;;;;;;5024206;28;20638;-71
2023/04/27 05:39:07;;;;;;;30.10;10.20;;;9.00;99.90;;;;;;5028024;28;20767;-71
2023/04/27 05:41:33;;;;;;;20.57;10.77;;;9.10;99.90;;;;;;5024953;28;20182;-72
2023/04/27 05:43:58;;;;;;;22.63;10.50;;;9.10;99.90;;;;;;5027045;28;20252;-74
2023/04/27 05:46:24;;;;;;;24.73;10.57;;;9.20;99.90;;;;;;5025964;28;20182;-73
2023/04/27 05:48:49;;;;;;;25.23;10.93;;;9.20;99.90;;;;;;5010925;28;20174;-72
2023/04/27 05:51:15;;;;;;;25.90;10.93;;;9.20;99.90;;;;;;5026642;28;20293;-72
2023/04/27 05:53:41;;;;;;;28.03;11.20;;;9.30;99.90;;;;;;5023953;28;20174;-72
2023/04/27 05:56:07;;;;;;;21.73;11.27;;;9.40;99.90;;;;;;5028461;28;20178;-72
2023/04/27 05:58:33;;;;;;;32.17;11.50;;;9.30;99.90;;;;;;5022945;28;20269;-70
2023/04/27 06:01:00;;;;;;;23.13;11.43;;;7.40;99.90;;;;;;5020352;28;20680;-70
2023/04/27 06:03:25;;;;;;;28.47;11.50;;;9.30;99.90;;;;;;5025343;28;20190;-71
2023/04/27 06:05:55;;;;;;;29.77;11.60;;;9.30;99.90;;;;;;5027740;28;20178;-72
2023/04/27 06:08:21;;;;;;;23.87;11.80;;;9.40;99.90;;;;;;5022697;28;20641;-72
2023/04/27 06:10:47;;;;;;;21.70;10.77;;;9.40;99.90;;;;;;5025508;28;20255;-71
2023/04/27 06:13:12;;;;;;;26.20;11.73;;;9.40;99.90;;;;;;5024079;28;20246;-70
2023/04/27 06:15:38;;;;;;;23.47;11.43;;;9.60;99.90;;;;;;5025253;28;20184;-71
2023/04/27 06:18:04;;;;;;;32.47;12.73;;;9.40;99.90;;;;;;5025678;28;20201;-70
2023/04/27 06:20:30;;;;;;;27.40;12.57;;;9.40;99.90;;;;;;5025334;28;20185;-70
2023/04/27 06:22:57;;;;;;;33.90;13.10;;;9.40;99.90;;;;;;5026563;28;20182;-73
2023/04/27 06:25:23;;;;;;;24.97;12.53;;;;;;;;;;5022814;28;20175;-71
2023/04/27 06:27:48;;;;;;;26.83;13.23;;;9.50;99.90;;;;;;5028273;28;20262;-72
2023/04/27 06:30:14;;;;;;;31.40;12.20;;;9.50;99.90;;;;;;5027947;28;20182;-72
2023/04/27 06:32:40;;;;;;;25.00;11.90;;;9.60;99.90;;;;;;5027461;28;20236;-73
2023/04/27 06:35:05;;;;;;;34.10;12.90;;;9.70;99.90;;;;;;5023349;28;20183;-72
2023/04/27 06:37:31;;;;;;;30.80;13.23;;;9.70;99.90;;;;;;5031038;28;20182;-72
2023/04/27 06:39:57;;;;;;;33.97;13.87;;;9.60;99.90;;;;;;5026836;28;20189;-72
2023/04/27 06:42:22;;;;;;;33.00;13.77;;;9.60;99.90;;;;;;5028532;28;20269;-72
2023/04/27 06:44:48;;;;;;;32.23;14.67;;;9.60;99.90;;;;;;5027140;28;20281;-79
2023/04/27 06:47:13;;;;;;;26.87;13.63;;;9.50;99.90;;;;;;5010956;28;20178;-74
2023/04/27 06:49:39;;;;;;;30.40;14.27;;;9.60;99.90;;;;;;5027814;28;20177;-76
2023/04/27 06:52:05;;;;;;;28.13;13.90;;;9.60;99.90;;;;;;5023372;28;20215;-77
2023/04/27 06:54:30;;;;;;;31.60;13.10;;;10.00;99.90;;;;;;5026020;28;20252;-74
2023/04/27 06:56:56;;;;;;;30.53;13.83;;;9.70;99.90;;;;;;5022740;28;20179;-74
2023/04/27 06:59:22;;;;;;;37.67;14.03;;;9.80;99.90;;;;;;5027277;28;20174;-75
2023/04/27 07:01:48;;;;;;;29.90;14.63;;;10.00;99.90;;;;;;5021693;28;20186;-76
2023/04/27 07:04:13;;;;;;;40.60;15.73;;;10.10;99.90;;;;;;5026738;28;20177;-76
2023/04/27 07:06:39;;;;;;;31.07;14.37;;;10.20;99.90;;;;;;5023506;28;20178;-75
2023/04/27 07:09:04;;;;;;;34.83;15.13;;;10.20;99.90;;;;;;5027132;28;20260;-72
2023/04/27 07:11:30;;;;;;;31.77;15.50;;;10.30;99.90;;;;;;5024430;28;20218;-71
2023/04/27 07:13:56;;;;;;;34.03;15.73;;;10.10;99.90;;;;;;5023590;28;20256;-71
2023/04/27 07:16:22;;;;;;;27.03;15.43;;;10.20;99.90;;;;;;5025985;28;20264;-75
2023/04/27 07:18:47;;;;;;;35.87;14.70;;;10.30;99.90;;;;;;5027023;28;20659;-73
2023/04/27 07:21:13;;;;;;;33.93;14.93;;;10.40;99.90;;;;;;5024814;28;20296;-72
2023/04/27 07:23:40;;;;;;;30.93;14.87;;;10.40;99.90;;;;;;5024559;28;20783;-71
2023/04/27 07:26:06;;;;;;;29.67;15.23;;;10.30;99.90;;;;;;5025903;28;20178;-72
2023/04/27 07:28:34;;;;;;;32.37;15.33;;;10.20;99.90;;;;;;5025126;28;20177;-71
2023/04/27 07:31:00;;;;;;;32.00;14.47;;;10.20;99.90;;;;;;5021377;28;20230;-72
2023/04/27 07:33:26;;;;;;;29.57;13.90;;;10.40;99.90;;;;;;5023202;28;20529;-73
2023/04/27 07:35:52;;;;;;;31.37;13.80;;;10.50;99.90;;;;;;5024898;28;20192;-75
2023/04/27 07:38:18;;;;;;;32.50;13.70;;;10.60;99.90;;;;;;5022584;28;20175;-74
2023/04/27 07:40:45;;;;;;;27.37;13.17;;;10.70;99.90;;;;;;5007225;28;20545;-74
2023/04/27 07:43:10;;;;;;;27.73;14.67;;;10.50;99.90;;;;;;5016834;28;20193;-74
2023/04/27 07:45:38;;;;;;;30.43;14.37;;;10.60;99.90;;;;;;5025053;28;20182;-73
2023/04/27 07:48:04;;;;;;;31.00;14.73;;;10.70;99.90;;;;;;5023481;28;20186;-73
2023/04/27 07:50:30;;;;;;;34.07;15.57;;;;;;;;;;5021059;28;20232;-73
2023/04/27 07:52:56;;;;;;;29.30;13.80;;;10.70;99.90;;;;;;5025070;28;20595;-70
2023/04/27 07:55:23;;;;;;;28.93;14.27;;;10.70;99.90;;;;;;5024881;28;20748;-75
2023/04/27 07:57:52;;;;;;;33.27;14.07;;;10.80;99.90;;;;;;5026611;28;20178;-75
2023/04/27 08:00:19;;;;;;;36.47;14.67;;;10.60;99.90;;;;;;5016973;28;20667;-75
2023/04/27 08:02:44;;;;;;;31.90;15.00;;;10.60;99.90;;;;;;5025719;28;20186;-75
2023/04/27 08:05:10;;;;;;;28.77;13.90;;;10.70;99.90;;;;;;5021860;28;20719;-74
2023/04/27 08:07:36;;;;;;;35.03;14.00;;;10.80;99.90;;;;;;5023652;28;20604;-75
2023/04/27 08:10:02;;;;;;;28.93;13.43;;;10.70;99.90;;;;;;5022927;28;20209;-75
2023/04/27 08:12:28;;;;;;;30.17;13.23;;;10.50;99.90;;;;;;5024598;28;20295;-74
2023/04/27 08:14:53;;;;;;;28.90;13.20;;;10.50;99.90;;;;;;5020859;28;20258;-75
2023/04/27 08:17:20;;;;;;;32.17;14.73;;;10.40;99.90;;;;;;5019661;28;20610;-70
2023/04/27 08:19:46;;;;;;;29.40;14.20;;;10.50;99.90;;;;;;5026403;28;20615;-69
2023/04/27 08:22:12;;;;;;;35.83;14.80;;;10.60;99.90;;;;;;5020842;28;20203;-69
2023/04/27 08:24:37;;;;;;;30.30;13.70;;;10.50;99.90;;;;;;5024731;28;20192;-70
2023/04/27 08:27:04;;;;;;;31.77;14.40;;;10.60;99.90;;;;;;5020857;28;20178;-70
2023/04/27 08:29:30;;;;;;;38.77;15.47;;;10.50;99.90;;;;;;5026909;28;20193;-70
2023/04/27 08:31:58;;;;;;;30.17;13.40;;;10.70;99.90;;;;;;5021682;28;20587;-70
2023/04/27 08:34:24;;;;;;;24.57;14.47;;;10.60;99.90;;;;;;5020546;28;20644;-69
2023/04/27 08:36:50;;;;;;;32.10;14.80;;;10.80;99.90;;;;;;5023292;28;20228;-70
2023/04/27 08:39:16;;;;;;;31.10;13.87;;;10.90;99.90;;;;;;5022699;28;20174;-69
2023/04/27 08:41:43;;;;;;;34.83;15.03;;;;;;;;;;5023313;28;20216;-69
2023/04/27 08:44:09;;;;;;;24.63;14.00;;;11.10;99.90;;;;;;5024299;28;20186;-69
2023/04/27 08:46:36;;;;;;;34.30;14.90;;;11.40;99.90;;;;;;5024511;28;20190;-69
2023/04/27 08:49:02;;;;;;;27.07;14.67;;;11.40;99.90;;;;;;5021660;28;20181;-70
2023/04/27 08:51:28;;;;;;;30.20;13.73;;;11.20;99.90;;;;;;5024587;28;20220;-70
2023/04/27 08:53:56;;;;;;;27.63;13.70;;;11.20;99.90;;;;;;5017776;28;20186;-69
2023/04/27 08:56:24;;;;;;;27.63;14.43;;;11.30;99.90;;;;;;5025287;28;20174;-70
2023/04/27 08:58:53;;;;;;;27.83;13.67;;;11.30;99.90;;;;;;5023853;28;20190;-70
2023/04/27 09:01:20;;;;;;;24.30;13.93;;;11.50;99.90;;;;;;5025092;28;20236;-69
2023/04/27 09:03:46;;;;;;;25.70;14.03;;;11.50;99.90;;;;;;5028195;28;20178;-69
2023/04/27 09:06:13;;;;;;;24.07;13.63;;;11.30;99.90;;;;;;5025849;28;20177;-69
2023/04/27 09:08:49;;;;;;;26.93;13.70;;;11.30;99.90;;;;;;5025729;28;20227;-69
2023/04/27 09:11:27;;;;;;;27.93;13.53;;;11.50;99.90;;;;;;5021368;28;20216;-69
2023/04/27 09:13:53;;;;;;;26.70;13.67;;;11.80;99.90;;;;;;5020234;28;20183;-69
2023/04/27 09:16:23;;;;;;;29.90;14.10;;;11.70;99.90;;;;;;5020404;28;20231;-69
2023/04/27 09:18:49;;;;;;;27.27;13.97;;;11.80;99.90;;;;;;5022476;28;20174;-68
2023/04/27 09:21:29;;;;;;;26.23;13.77;;;11.70;99.90;;;;;;5027635;28;20264;-70
2023/04/27 09:23:55;;;;;;;27.30;13.17;;;11.70;99.90;;;;;;5020111;28;20189;-70
2023/04/27 09:26:26;;;;;;;21.83;11.47;;;11.80;99.90;;;;;;5023952;28;20206;-70
2023/04/27 09:28:55;;;;;;;30.60;14.10;;;11.70;99.90;;;;;;5019883;28;20178;-70
2023/04/27 09:31:29;;;;;;;26.73;13.77;;;11.70;99.90;;;;;;5025541;28;20221;-70
2023/04/27 09:33:55;;;;;;;28.90;13.53;;;11.70;99.90;;;;;;5023530;28;20586;-69
2023/04/27 09:36:22;;;;;;;33.70;14.37;;;11.90;99.90;;;;;;5026800;28;20323;-69
2023/04/27 09:38:50;;;;;;;29.57;14.20;;;11.80;99.90;;;;;;5021026;28;20664;-69
2023/04/27 09:41:16;;;;;;;32.37;14.10;;;11.70;99.90;;;;;;5013278;28;20218;-70
2023/04/27 09:43:46;;;;;;;27.73;12.83;;;11.80;99.90;;;;;;5023266;28;20182;-69
2023/04/27 09:46:14;;;;;;;27.10;13.03;;;11.90;99.90;;;;;;5024917;28;20268;-70
2023/04/27 09:48:40;;;;;;;31.07;14.30;;;11.80;99.90;;;;;;5022269;28;20181;-69
2023/04/27 09:51:07;;;;;;;24.53;12.67;;;11.80;99.90;;;;;;5027011;28;20676;-69
2023/04/27 09:53:42;;;;;;;29.27;14.47;;;11.80;99.90;;;;;;5026078;28;20190;-69
2023/04/27 09:56:33;;;;;;;27.00;13.23;;;12.10;99.90;;;;;;5028054;28;20173;-70
2023/04/27 09:59:12;;;;;;;28.57;13.53;;;12.10;99.90;;;;;;5027231;28;20205;-70
2023/04/27 10:01:54;;;;;;;29.57;14.27;;;12.30;99.90;;;;;;5027477;28;20182;-72
2023/04/27 10:04:47;;;;;;;25.63;12.47;;;12.40;99.90;;;;;;5026325;28;20261;-72
2023/04/27 10:07:16;;;;;;;22.33;10.83;;;12.40;99.90;;;;;;5026889;28;20186;-70
2023/04/27 10:09:46;;;;;;;26.07;12.27;;;12.60;99.90;;;;;;5016882;28;20226;-74
2023/04/27 10:12:25;;;;;;;23.87;13.20;;;12.70;99.90;;;;;;5026270;28;20216;-74
2023/04/27 10:14:55;;;;;;;26.90;12.93;;;13.00;99.90;;;;;;5024926;28;20185;-72
2023/04/27 10:17:31;;;;;;;32.30;13.67;;;13.00;99.90;;;;;;5024151;28;20182;-71
2023/04/27 10:20:01;;;;;;;29.60;13.67;;;12.90;99.90;;;;;;5031122;28;20288;-72
2023/04/27 10:22:38;;;;;;;25.40;13.63;;;13.00;99.90;;;;;;5024709;28;20166;-72
2023/04/27 10:25:20;;;;;;;27.57;12.43;;;12.80;99.90;;;;;;5027294;28;20216;-72
2023/04/27 10:27:53;;;;;;;24.07;12.83;;;12.80;99.90;;;;;;5026348;28;20193;-71
2023/04/27 10:30:21;;;;;;;24.23;11.90;;;12.80;99.90;;;;;;5026074;28;20204;-71
2023/04/27 10:32:55;;;;;;;27.03;13.80;;;12.70;99.90;;;;;;5030595;28;20234;-72
2023/04/27 10:35:37;;;;;;;23.57;12.80;;;12.70;99.90;;;;;;5023704;28;20597;-72
2023/04/27 10:38:16;;;;;;;27.53;11.63;;;12.80;99.90;;;;;;5025862;28;20197;-71
2023/04/27 10:40:44;;;;;;;25.47;12.53;;;12.70;99.90;;;;;;5023581;28;20194;-71
2023/04/27 10:43:11;;;;;;;31.87;12.17;;;12.60;99.90;;;;;;5025819;28;20179;-71
2023/04/27 10:45:38;;;;;;;24.67;12.37;;;12.70;99.90;;;;;;5026492;28;20181;-72
2023/04/27 10:48:04;;;;;;;29.17;12.63;;;14.20;99.90;;;;;;5022955;28;20231;-71
2023/04/27 10:50:30;;;;;;;27.33;12.10;;;12.60;99.90;;;;;;5024268;28;20174;-72
2023/04/27 10:53:01;;;;;;;31.33;11.53;;;12.70;99.90;;;;;;5026969;28;20182;-72
2023/04/27 10:55:28;;;;;;;24.57;12.03;;;12.60;99.90;;;;;;5026666;28;20201;-72
2023/04/27 10:57:54;;;;;;;21.20;11.30;;;12.40;99.90;;;;;;5027715;28;20649;-72
2023/04/27 11:00:35;;;;;;;27.53;12.37;;;12.40;99.90;;;;;;5021329;28;20265;-72
2023/04/27 11:03:17;;;;;;;25.03;11.70;;;12.30;99.90;;;;;;5009455;28;20226;-72
2023/04/27 11:05:44;;;;;;;22.67;10.73;;;12.30;99.90;;;;;;5023322;28;20175;-71
2023/04/27 11:08:17;;;;;;;26.27;13.10;;;12.30;99.90;;;;;;5027696;28;20189;-71
2023/04/27 11:10:48;;;;;;;22.40;9.97;;;12.20;99.90;;;;;;5022790;28;20305;-72
2023/04/27 11:13:17;;;;;;;25.17;12.17;;;12.10;99.90;;;;;;5028195;28;20185;-72
2023/04/27 11:15:54;;;;;;;25.80;13.30;;;12.20;99.90;;;;;;5022712;28;20194;-72
2023/04/27 11:18:30;;;;;;;30.07;13.47;;;12.00;99.90;;;;;;5027558;28;20185;-73
2023/04/27 11:21:25;;;;;;;30.93;14.33;;;12.10;99.90;;;;;;5026997;28;20230;-72
2023/04/27 11:23:50;;;;;;;23.90;12.60;;;12.10;99.90;;;;;;5015107;28;20220;-72
2023/04/27 11:26:16;;;;;;;26.97;14.43;;;;;;;;;;5025274;28;20173;-72
2023/04/27 11:28:59;;;;;;;25.43;13.37;;;12.10;99.90;;;;;;5025985;28;20541;-72
2023/04/27 11:31:38;;;;;;;28.00;14.90;;;12.10;99.90;;;;;;5026182;28;20214;-73
2023/04/27 11:34:05;;;;;;;27.70;14.63;;;12.10;99.90;;;;;;5022881;28;20235;-74
2023/04/27 11:36:31;;;;;;;32.27;15.03;;;12.00;99.90;;;;;;5026694;28;20235;-73
2023/04/27 11:38:58;;;;;;;34.77;15.33;;;12.00;99.90;;;;;;5023786;28;20208;-72
2023/04/27 11:41:35;;;;;;;32.47;15.40;;;12.00;99.90;;;;;;5025827;28;20174;-73
2023/04/27 11:44:08;;;;;;;34.17;15.63;;;11.80;99.90;;;;;;5022804;28;20204;-72
2023/04/27 11:46:35;;;;;;;30.97;15.00;;;12.00;99.90;;;;;;5018649;28;20178;-73
2023/04/27 11:49:07;;;;;;;28.37;14.80;;;12.00;99.90;;;;;;5025280;28;20166;-73
2023/04/27 11:51:33;;;;;;;33.17;14.47;;;11.90;99.90;;;;;;5030281;28;20347;-73
2023/04/27 11:54:05;;;;;;;29.17;14.50;;;11.80;99.90;;;;;;5024037;28;20271;-73
2023/04/27 11:56:36;;;;;;;30.07;14.03;;;11.80;99.90;;;;;;5024494;28;20177;-73
2023/04/27 11:59:02;;;;;;;26.40;12.47;;;11.80;99.90;;;;;;5023470;28;20170;-73
2023/04/27 12:01:28;;;;;;;24.53;13.63;;;11.50;99.90;;;;;;5024717;28;20384;-73
2023/04/27 12:03:53;;;;;;;27.43;12.70;;;11.80;99.90;;;;;;5021862;28;20650;-74
2023/04/27 12:06:27;;;;;;;25.97;13.80;;;11.70;99.90;;;;;;5024155;28;20319;-73
2023/04/27 12:08:56;;;;;;;26.07;13.93;;;11.70;99.90;;;;;;5024609;28;20234;-73
2023/04/27 12:11:25;;;;;;;35.73;14.17;;;11.70;99.90;;;;;;5024190;28;20625;-73
2023/04/27 12:13:51;;;;;;;23.17;12.30;;;11.80;99.90;;;;;;5024566;28;20170;-72
2023/04/27 12:16:17;;;;;;;32.80;16.00;;;;;;;;;;5025782;28;20177;-73
2023/04/27 12:18:43;;;;;;;28.07;15.67;;;11.70;99.90;;;;;;5024438;28;20319;-72
2023/04/27 12:21:09;;;;;;;32.50;15.67;;;;;;;;;;5022141;28;20269;-73
2023/04/27 12:23:35;;;;;;;29.53;16.00;;;11.70;99.90;;;;;;5024893;28;20178;-73
2023/04/27 12:26:01;;;;;;;23.60;13.07;;;11.70;99.90;;;;;;5021622;28;20194;-73
2023/04/27 12:28:27;;;;;;;25.77;14.20;;;11.70;99.90;;;;;;5025077;28;20309;-74
2023/04/27 12:30:53;;;;;;;31.40;15.77;;;12.10;99.90;;;;;;5021768;28;20242;-74
2023/04/27 12:33:19;;;;;;;29.87;16.67;;;11.60;99.90;;;;;;5026798;28;20211;-72
2023/04/27 12:35:45;;;;;;;31.00;15.83;;;11.60;99.90;;;;;;5024279;28;20652;-73
2023/04/27 12:38:10;;;;;;;24.70;14.63;;;11.50;99.90;;;;;;5021725;28;20189;-71
2023/04/27 12:40:36;;;;;;;33.63;16.03;;;11.50;99.90;;;;;;5025372;28;20181;-72